Time;durP1;ratioP1;P1;durP2;ratioP2;P2;SDS_P1;SDS_P2;PMS_P1;PMS_P2;Temp;Humidity;BMP_temperature;BMP_pressure;BME280_temperature;BME280_humidity;BME280_pressure;Samples;Min_cycle;Max_cycle;Signal;HPM_P1;HPM_P2
2023/02/16 00:02:02;;;;;;;;;;;;;;;27.25;35.47;95192.13;4835780;29;8820;-56
2023/02/16 00:05:00;;;;;;;;;;;;;;;27.26;35.65;95194.38;4838714;29;7269;-56
2023/02/16 00:07:26;;;;;;;;;;;;;;;27.25;35.63;95187.34;4841892;29;7272;-56
2023/02/16 00:10:05;;;;;;;;;;;;;;;27.28;35.63;95191.09;4857275;29;7331;-56
2023/02/16 00:15:25;;;;;;;;;;;;;;;27.26;35.79;95194.38;4853624;29;9595;-56
2023/02/16 00:17:55;;;;;;;;;;;;;;;27.26;35.38;95194.38;4854251;29;9270;-55
2023/02/16 00:20:21;;;;;;;;;;;;;;;27.28;35.18;95197.38;4856332;29;7581;-56
2023/02/16 00:22:47;;;;;;;;;;;;;;;27.27;35.28;95201.41;4845112;29;9042;-56
2023/02/16 00:25:15;;;;;;;;;;;;;;;27.28;35.76;95202.91;4889678;29;7237;-56
2023/02/16 00:27:43;;;;;;;;;;;;;;;27.30;35.65;95200.41;4898145;29;9464;-56
2023/02/16 00:30:21;;;;;;;;;;;;;;;27.30;35.50;95194.13;4902779;29;7061;-56
2023/02/16 00:32:49;;;;;;;;;;;;;;;27.30;35.48;95194.13;4911105;29;7030;-56
2023/02/16 00:35:16;;;;;;;;;;;;;;;27.35;35.01;95196.13;4896008;29;9365;-56
2023/02/16 00:37:49;;;;;;;;;;;;;;;27.33;35.29;95196.63;4930718;28;7030;-56
2023/02/16 00:40:45;;;;;;;;;;;;;;;27.36;35.33;95192.88;4946470;28;8998;-56
2023/02/16 00:43:28;;;;;;;;;;;;;;;27.37;35.33;95205.44;4897292;29;8769;-55
2023/02/16 00:45:56;;;;;;;;;;;;;;;27.36;35.42;95208.72;4895197;29;7087;-55
2023/02/16 00:48:41;;;;;;;;;;;;;;;27.36;35.05;95217.00;4904104;29;9044;-55
2023/02/16 00:51:24;;;;;;;;;;;;;;;27.34;35.36;95211.94;4913105;29;7226;-56
2023/02/16 00:54:09;;;;;;;;;;;;;;;27.34;35.40;95222.25;4902133;29;8780;-56
2023/02/16 00:56:45;;;;;;;;;;;;;;;27.36;35.29;95214.97;4906333;29;7230;-56
2023/02/16 00:59:43;;;;;;;;;;;;;;;27.36;35.28;95223.28;4907661;29;7090;-56
2023/02/16 01:02:12;;;;;;;;;;;;;;;27.33;35.30;95224.25;4876236;29;7263;-55
2023/02/16 01:05:14;;;;;;;;;;;;;;;27.35;35.35;95230.06;4875122;29;9062;-56
2023/02/16 01:11:11;;;;;;;;;;;;;;;27.36;35.38;95237.09;4811062;29;7201;-56
2023/02/16 01:13:44;;;;;;;;;;;;;;;27.34;35.16;95245.09;4807336;29;9163;-56
2023/02/16 01:16:42;;;;;;;;;;;;;;;27.32;35.03;95233.78;4814694;29;9132;-56
2023/02/16 01:19:48;;;;;;;;;;;;;;;27.32;35.54;95242.09;4798973;29;7360;-56
2023/02/16 01:22:43;;;;;;;;;;;;;;;27.31;35.30;95239.84;4782492;29;9315;-56
2023/02/16 01:25:20;;;;;;;;;;;;;;;27.30;35.57;95244.59;4779806;29;8962;-56
2023/02/16 01:28:19;;;;;;;;;;;;;;;27.31;35.28;95239.84;4790044;29;7418;-56
2023/02/16 01:31:19;;;;;;;;;;;;;;;27.29;35.58;95237.56;4804712;29;7266;-56
2023/02/16 01:33:49;;;;;;;;;;;;;;;27.29;35.48;95232.06;4751070;30;8601;-56
2023/02/16 01:36:58;;;;;;;;;;;;;;;27.26;35.42;95233.03;4738393;30;7705;-56
2023/02/16 01:39:44;;;;;;;;;;;;;;;27.28;35.07;95229.78;4807387;29;7634;-56
2023/02/16 01:43:03;;;;;;;;;;;;;;;27.27;35.40;95229.03;4839563;29;7179;-56
2023/02/16 01:45:36;;;;;;;;;;;;;;;27.27;35.89;95231.81;4873039;29;7258;-56
2023/02/16 01:48:40;;;;;;;;;;;;;;;27.27;35.53;95229.03;4858195;29;7070;-56
2023/02/16 01:51:27;;;;;;;;;;;;;;;27.28;35.47;95233.28;4839426;29;7195;-56
2023/02/16 01:54:17;;;;;;;;;;;;;;;27.26;35.25;95222.00;4791751;29;9102;-56
2023/02/16 01:57:18;;;;;;;;;;;;;;;27.25;35.18;95217.72;4813453;29;7232;-56
2023/02/16 01:59:53;;;;;;;;;;;;;;;27.26;35.56;95219.22;4811876;29;8481;-56
2023/02/16 02:02:42;;;;;;;;;;;;;;;27.26;35.46;95222.00;4812613;29;8423;-56
2023/02/16 02:05:36;;;;;;;;;;;;;;;27.26;35.31;95224.00;4795978;29;7580;-56
2023/02/16 02:08:15;;;;;;;;;;;;;;;27.24;35.30;95219.00;4806540;29;7273;-56
2023/02/16 02:10:58;;;;;;;;;;;;;;;27.23;35.52;95222.25;4869751;29;9472;-56
2023/02/16 02:13:59;;;;;;;;;;;;;;;27.26;35.46;95221.25;4874873;29;7268;-56
2023/02/16 02:16:38;;;;;;;;;;;;;;;27.23;35.22;95214.69;4886777;29;8758;-56
2023/02/16 02:19:19;;;;;;;;;;;;;;;27.25;35.42;95205.94;4873446;29;8456;-56
2023/02/16 02:25:18;;;;;;;;;;;;;;;27.24;35.10;95207.19;4926610;29;9044;-56
2023/02/16 02:28:05;;;;;;;;;;;;;;;27.21;35.39;95206.16;4931489;29;7173;-56
2023/02/16 02:31:03;;;;;;;;;;;;;;;27.22;35.79;95206.94;4929578;29;9091;-56
2023/02/16 02:33:48;;;;;;;;;;;;;;;27.22;35.54;95204.94;4895462;29;7243;-56
2023/02/16 02:36:35;;;;;;;;;;;;;;;27.21;35.46;95208.94;4881316;29;7141;-56
2023/02/16 02:39:49;;;;;;;;;;;;;;;27.21;35.34;95214.47;4892397;29;7268;-56
2023/02/16 02:45:48;;;;;;;;;;;;;;;27.20;35.40;95217.72;4895480;29;8510;-55
2023/02/16 02:48:41;;;;;;;;;;;;;;;27.18;35.16;95217.47;4877949;29;9485;-56
2023/02/16 02:51:28;;;;;;;;;;;;;;;27.16;35.67;95218.00;4876983;29;7058;-56
2023/02/16 03:00:39;;;;;;;;;;;;;;;27.19;35.38;95200.41;4895524;29;8908;-56
2023/02/16 03:06:56;;;;;;;;;;;;;;;27.16;35.78;95195.91;4892671;29;9111;-55
2023/02/16 03:09:24;;;;;;;;;;;;;;;27.17;35.52;95196.63;4902373;28;8321;-56
2023/02/16 03:14:59;;;;;;;;;;;;;;;27.15;35.41;95191.63;4950099;28;7052;-56
2023/02/16 03:29:39;;;;;;;;;;;;;;;27.14;35.62;95200.41;4876078;29;9609;-56
2023/02/16 03:32:09;;;;;;;;;;;;;;;27.14;35.94;95198.41;4859420;29;7220;-56
2023/02/16 03:34:49;;;;;;;;;;;;;;;27.14;35.84;95190.13;4859687;29;7297;-55
2023/02/16 03:37:18;;;;;;;;;;;;;;;27.14;35.68;95195.66;4864178;29;8969;-56
2023/02/16 03:43:20;;;;;;;;;;;;;;;27.14;35.37;95192.13;4871082;29;7167;-56
2023/02/16 03:46:04;;;;;;;;;;;;;;;27.14;35.57;95203.16;4852042;29;9074;-56
2023/02/16 03:48:33;;;;;;;;;;;;;;;27.16;35.25;95201.41;4839701;29;9024;-56
2023/02/16 03:51:02;;;;;;;;;;;;;;;27.11;35.67;95199.41;4841768;29;7142;-56
2023/02/16 03:53:37;;;;;;;;;;;;;;;27.14;35.76;95203.94;4845286;29;9412;-56
2023/02/16 03:56:29;;;;;;;;;;;;;;;27.14;35.34;95197.66;4875935;29;8862;-56
2023/02/16 03:59:04;;;;;;;;;;;;;;;27.09;35.68;95196.38;4878557;29;7275;-56
2023/02/16 04:01:30;;;;;;;;;;;;;;;27.10;35.60;95200.63;4887033;29;8711;-56
2023/02/16 04:03:58;;;;;;;;;;;;;;;27.11;35.39;95199.41;4877768;29;9192;-56
2023/02/16 04:06:28;;;;;;;;;;;;;;;27.11;35.19;95199.41;4880018;29;9213;-56
2023/02/16 04:08:56;;;;;;;;;;;;;;;27.10;35.67;95200.63;4890749;29;9035;-56
2023/02/16 04:14:10;;;;;;;;;;;;;;;27.10;35.64;95199.91;4894825;29;6864;-56
2023/02/16 04:17:03;;;;;;;;;;;;;;;27.10;35.35;95197.88;4875703;29;7130;-56
2023/02/16 04:19:38;;;;;;;;;;;;;;;27.07;35.52;95196.13;4878747;29;7652;-56
2023/02/16 04:22:05;;;;;;;;;;;;;;;27.05;35.44;95193.13;4902099;28;8746;-56
2023/02/16 04:24:31;;;;;;;;;;;;;;;27.06;35.90;95202.91;4972479;28;8719;-56
2023/02/16 04:27:03;;;;;;;;;;;;;;;27.06;35.15;95202.13;4966048;28;7331;-56
2023/02/16 04:29:30;;;;;;;;;;;;;;;27.01;35.67;95195.38;4950137;28;9218;-56
2023/02/16 04:31:59;;;;;;;;;;;;;;;26.98;35.67;95199.13;4966375;28;8429;-56
2023/02/16 04:34:25;;;;;;;;;;;;;;;27.00;35.95;95202.16;4967860;28;9161;-56
2023/02/16 04:37:05;;;;;;;;;;;;;;;26.99;36.15;95203.38;4955468;28;7245;-56
2023/02/16 04:39:46;;;;;;;;;;;;;;;26.99;35.94;95197.13;4958065;28;9070;-56
2023/02/16 04:42:15;;;;;;;;;;;;;;;26.98;35.78;95199.13;4944752;28;8636;-56
2023/02/16 04:44:52;;;;;;;;;;;;;;;26.96;35.49;95196.13;4967136;28;7033;-56
2023/02/16 04:47:28;;;;;;;;;;;;;;;26.94;36.06;95200.63;4952335;28;7181;-55
2023/02/16 04:50:03;;;;;;;;;;;;;;;26.95;35.84;95200.13;4975310;28;8708;-56
2023/02/16 04:52:40;;;;;;;;;;;;;;;26.95;35.90;95204.91;4962431;28;7374;-56
2023/02/16 04:55:25;;;;;;;;;;;;;;;26.93;36.15;95208.16;4958116;28;7497;-56
2023/02/16 04:58:01;;;;;;;;;;;;;;;26.93;35.65;95213.69;4964116;28;7378;-56
2023/02/16 05:00:35;;;;;;;;;;;;;;;26.93;36.20;95210.91;4972777;28;9191;-55
2023/02/16 05:03:01;;;;;;;;;;;;;;;26.92;35.59;95209.44;4956004;28;7034;-56
2023/02/16 05:05:50;;;;;;;;;;;;;;;26.92;35.90;95214.94;4958001;28;9140;-55
2023/02/16 05:08:27;;;;;;;;;;;;;;;26.91;36.05;95213.44;4963527;28;8690;-56
2023/02/16 05:14:40;;;;;;;;;;;;;;;26.90;36.22;95214.69;4952587;28;9026;-56
2023/02/16 05:17:37;;;;;;;;;;;;;;;26.90;36.17;95211.94;4912559;29;8711;-56
2023/02/16 05:21:28;;;;;;;;;;;;;;;26.89;36.47;95216.69;4834101;29;7270;-56
2023/02/16 05:23:26;;;;;;;;;;;;;;;26.88;36.64;95223.47;4844446;29;7061;-56
2023/02/16 05:26:03;;;;;;;;;;;;;;;26.88;36.07;95225.47;4813788;29;8959;-56
2023/02/16 05:28:39;;;;;;;;;;;;;;;26.86;35.92;95219.72;4828977;29;7520;-56
2023/02/16 05:31:25;;;;;;;;;;;;;;;26.86;36.26;95222.47;4838278;29;7222;-56
2023/02/16 05:34:04;;;;;;;;;;;;;;;26.83;36.27;95224.22;4830232;29;9082;-56
2023/02/16 05:36:36;;;;;;;;;;;;;;;26.79;36.07;95225.72;4848417;29;7289;-56
2023/02/16 05:39:04;;;;;;;;;;;;;;;26.78;36.56;95229.72;4847219;29;7101;-55
2023/02/16 05:41:30;;;;;;;;;;;;;;;26.79;36.12;95228.47;4843460;29;9123;-56
2023/02/16 05:44:00;;;;;;;;;;;;;;;26.81;35.97;95231.50;4846092;29;7430;-55
2023/02/16 05:47:13;;;;;;;;;;;;;;;26.81;36.57;95229.50;4846966;29;7070;-56
2023/02/16 05:50:34;;;;;;;;;;;;;;;26.81;36.17;95235.00;4768992;29;7204;-56
2023/02/16 05:53:25;;;;;;;;;;;;;;;26.75;35.87;95227.97;4800215;29;9082;-56
2023/02/16 05:56:21;;;;;;;;;;;;;;;26.75;36.81;95233.50;4837572;29;8937;-56
2023/02/16 05:59:05;;;;;;;;;;;;;;;26.69;36.49;95229.91;4813615;29;7074;-56
2023/02/16 06:01:31;;;;;;;;;;;;;;;26.73;36.39;95230.47;4810229;29;9151;-56
2023/02/16 06:03:57;;;;;;;;;;;;;;;26.75;35.39;95227.97;4804714;29;8919;-55
2023/02/16 06:06:23;;;;;;;;;;;;;;;26.74;35.77;95232.72;4803846;29;9254;-55
2023/02/16 06:09:03;;;;;;;;;;;;;;;26.67;35.81;95229.66;4806270;29;7210;-56
2023/02/16 06:11:39;;;;;;;;;;;;;;;26.65;36.98;95238.44;4813325;29;7196;-56
2023/02/16 06:14:14;;;;;;;;;;;;;;;26.65;35.97;95238.44;4812896;29;9065;-56
2023/02/16 06:16:44;;;;;;;;;;;;;;;26.65;36.33;95238.44;4800998;29;7273;-56
2023/02/16 06:19:11;;;;;;;;;;;;;;;26.72;37.04;95235.22;4795782;29;9622;-56
2023/02/16 06:21:41;;;;;;;;;;;;;;;26.74;36.49;95231.97;4806666;29;7082;-56
2023/02/16 06:24:09;;;;;;;;;;;;;;;26.74;36.23;95243.00;4810358;29;7269;-56
2023/02/16 06:26:35;;;;;;;;;;;;;;;26.70;37.25;95239.72;4841452;29;7006;-55
2023/02/16 06:29:06;;;;;;;;;;;;;;;26.70;36.70;95248.75;4901896;29;7263;-56
2023/02/16 06:31:35;;;;;;;;;;;;;;;26.75;36.80;95250.03;4881930;29;9208;-56
2023/02/16 06:34:26;;;;;;;;;;;;;;;26.78;36.15;95249.03;4883522;28;9285;-56
2023/02/16 06:36:58;;;;;;;;;;;;;;;26.77;37.05;95251.03;4949226;28;7572;-55
2023/02/16 06:39:26;;;;;;;;;;;;;;;26.77;36.47;95253.06;4961474;28;7417;-56
2023/02/16 06:41:55;;;;;;;;;;;;;;;26.75;35.97;95261.09;4957553;28;8715;-55
2023/02/16 06:44:43;;;;;;;;;;;;;;;26.72;36.63;95262.81;4954836;28;7118;-55
2023/02/16 06:47:27;;;;;;;;;;;;;;;26.70;36.35;95264.53;4971140;28;8439;-55
2023/02/16 06:50:16;;;;;;;;;;;;;;;26.69;36.14;95265.78;4957407;28;7123;-55
2023/02/16 06:52:54;;;;;;;;;;;;;;;26.64;36.36;95261.03;4958502;28;8189;-55
2023/02/16 06:55:24;;;;;;;;;;;;;;;26.65;37.05;95266.03;4952197;28;7110;-55
2023/02/16 06:57:52;;;;;;;;;;;;;;;26.64;36.50;95266.53;4953851;28;7107;-55
2023/02/16 07:00:46;;;;;;;;;;;;;;;26.65;36.69;95273.56;4965809;28;9088;-55
2023/02/16 07:03:25;;;;;;;;;;;;;;;26.62;36.82;95283.56;4972263;28;7128;-56
2023/02/16 07:06:26;;;;;;;;;;;;;;;26.59;36.30;95284.59;4959683;28;9000;-55
2023/02/16 07:08:53;;;;;;;;;;;;;;;26.59;36.38;95281.81;4902101;29;8981;-55
2023/02/16 07:11:39;;;;;;;;;;;;;;;26.56;36.27;95280.03;4899533;29;7122;-55
2023/02/16 07:14:05;;;;;;;;;;;;;;;26.58;36.54;95285.06;4885026;29;7252;-55
2023/02/16 07:16:31;;;;;;;;;;;;;;;26.55;36.56;95278.56;4898361;29;9202;-55
2023/02/16 07:18:58;;;;;;;;;;;;;;;26.56;36.57;95282.03;4887320;29;7903;-55
2023/02/16 07:21:24;;;;;;;;;;;;;;;26.57;36.85;95289.84;4903095;29;8275;-55
2023/02/16 07:23:50;;;;;;;;;;;;;;;26.57;37.08;95287.09;4893836;29;9085;-56
2023/02/16 07:26:19;;;;;;;;;;;;;;;26.63;36.61;95289.84;4892529;29;7249;-55
2023/02/16 07:28:46;;;;;;;;;;;;;;;26.70;36.62;95292.16;4900931;29;7229;-56
2023/02/16 07:31:14;;;;;;;;;;;;;;;26.69;36.46;95296.91;4899401;29;8924;-56
2023/02/16 07:33:41;;;;;;;;;;;;;;;26.67;36.63;95296.66;4901367;29;7048;-55
2023/02/16 07:36:09;;;;;;;;;;;;;;;26.70;36.77;95292.16;4900102;29;7242;-56
2023/02/16 07:38:36;;;;;;;;;;;;;;;26.66;37.27;95297.16;4893515;29;9070;-56
2023/02/16 07:41:02;;;;;;;;;;;;;;;26.66;37.38;95297.16;4887240;29;7018;-56
2023/02/16 07:43:29;;;;;;;;;;;;;;;26.68;37.43;95294.66;4897958;28;9198;-56
2023/02/16 07:45:57;;;;;;;;;;;;;;;26.65;37.23;95306.66;4970985;28;7105;-56
2023/02/16 07:48:23;;;;;;;;;;;;;;;26.61;37.75;95306.16;4944899;28;7560;-55
2023/02/16 07:50:49;;;;;;;;;;;;;;;26.61;37.67;95301.41;4957321;28;7602;-56
2023/02/16 07:53:21;;;;;;;;;;;;;;;26.59;37.93;95297.63;4952571;28;7269;-56
2023/02/16 07:55:50;;;;;;;;;;;;;;;26.58;37.80;95302.38;4951670;28;9727;-56
2023/02/16 07:58:25;;;;;;;;;;;;;;;26.58;38.48;95298.84;4957737;28;9002;-56
2023/02/16 08:01:07;;;;;;;;;;;;;;;26.63;37.71;95303.66;4968298;28;7516;-56
2023/02/16 08:03:38;;;;;;;;;;;;;;;26.69;37.66;95299.66;4956455;28;7310;-56
2023/02/16 08:06:22;;;;;;;;;;;;;;;26.75;38.00;95299.72;4958948;28;10074;-56
2023/02/16 08:08:50;;;;;;;;;;;;;;;26.78;38.13;95304.25;4968555;28;7456;-56
2023/02/16 08:11:19;;;;;;;;;;;;;;;26.81;38.37;95303.25;4969585;28;7045;-56
2023/02/16 08:14:02;;;;;;;;;;;;;;;26.84;37.89;95302.25;4967669;28;9069;-56
2023/02/16 08:16:57;;;;;;;;;;;;;;;26.86;37.73;95305.28;4958491;28;7283;-56
2023/02/16 08:19:23;;;;;;;;;;;;;;;26.84;37.57;95302.25;4897203;29;8729;-56
2023/02/16 08:21:50;;;;;;;;;;;;;;;26.79;37.54;95303.00;4888428;29;7008;-55
2023/02/16 08:24:18;;;;;;;;;;;;;;;26.83;38.20;95309.03;4894062;29;7245;-56
2023/02/16 08:26:56;;;;;;;;;;;;;;;26.81;38.43;95300.50;4894627;29;9166;-55
2023/02/16 08:29:25;;;;;;;;;;;;;;;26.86;37.55;95305.28;4894170;29;9017;-56
2023/02/16 08:31:55;;;;;;;;;;;;;;;26.87;37.51;95307.53;4895893;29;8900;-56
2023/02/16 08:34:37;;;;;;;;;;;;;;;26.88;37.17;95297.25;4906205;29;7257;-56
2023/02/16 08:37:23;;;;;;;;;;;;;;;26.89;37.27;95304.28;4901114;29;7246;-56
2023/02/16 08:39:50;;;;;;;;;;;;;;;26.91;37.46;95301.78;4900633;29;7026;-56
2023/02/16 08:42:16;;;;;;;;;;;;;;;26.90;37.91;95295.47;4902170;29;8732;-56
2023/02/16 08:44:44;;;;;;;;;;;;;;;26.93;37.36;95304.78;4890986;29;7051;-56
2023/02/16 08:47:11;;;;;;;;;;;;;;;26.92;37.70;95294.25;4883477;29;9397;-56
2023/02/16 08:49:46;;;;;;;;;;;;;;;26.89;37.94;95294.00;4895723;29;7284;-56
2023/02/16 08:52:14;;;;;;;;;;;;;;;26.87;37.21;95292.97;4895640;29;8909;-56
2023/02/16 08:54:47;;;;;;;;;;;;;;;26.91;37.80;95301.78;4894974;29;8971;-56
2023/02/16 08:57:18;;;;;;;;;;;;;;;26.94;37.07;95302.78;4948170;28;8763;-56
2023/02/16 09:02:40;;;;;;;;;;;;;;;26.92;37.83;95305.28;4955915;28;9236;-56
2023/02/16 09:05:40;;;;;;;;;;;;;;;26.97;37.33;95304.56;4962484;28;7363;-55
2023/02/16 09:08:08;;;;;;;;;;;;;;;26.98;38.02;95312.34;4915749;29;7211;-56
2023/02/16 09:10:45;;;;;;;;;;;;;;;26.99;37.53;95308.31;4889524;29;7025;-56
2023/02/16 09:13:23;;;;;;;;;;;;;;;27.00;37.96;95312.59;4902205;29;7240;-56
2023/02/16 09:15:52;;;;;;;;;;;;;;;26.98;37.43;95312.34;4896832;29;7147;-56
2023/02/16 09:18:18;;;;;;;;;;;;;;;27.03;37.63;95308.09;4913626;29;7362;-56
2023/02/16 09:20:46;;;;;;;;;;;;;;;27.00;37.26;95315.34;4897285;29;10237;-56
2023/02/16 09:23:25;;;;;;;;;;;;;;;27.02;37.89;95314.84;4910087;29;9417;-56
2023/02/16 09:26:08;;;;;;;;;;;;;;;27.02;37.59;95315.59;4914163;29;8660;-56
2023/02/16 09:29:04;;;;;;;;;;;;;;;27.03;37.77;95322.66;4897356;29;7272;-56
2023/02/16 09:31:43;;;;;;;;;;;;;;;27.02;38.17;95318.38;4861818;29;8762;-56
2023/02/16 09:34:26;;;;;;;;;;;;;;;26.99;37.65;95319.34;4877672;29;7875;-56
2023/02/16 09:37:05;;;;;;;;;;;;;;;27.00;37.73;95314.59;4875159;29;7239;-56
2023/02/16 09:39:32;;;;;;;;;;;;;;;27.01;37.85;95313.34;4863162;29;7021;-56
2023/02/16 09:42:03;;;;;;;;;;;;;;;27.02;37.53;95310.09;4852983;29;9016;-56
2023/02/16 09:44:32;;;;;;;;;;;;;;;27.05;37.55;95317.38;4904380;29;7032;-56
2023/02/16 09:47:29;;;;;;;;;;;;;;;27.05;37.05;95311.09;4911016;29;9387;-56
2023/02/16 09:50:12;;;;;;;;;;;;;;;27.04;37.87;95318.63;4910020;29;7511;-56
2023/02/16 09:53:14;;;;;;;;;;;;;;;27.05;37.58;95305.56;4906565;29;7027;-56
2023/02/16 09:59:13;;;;;;;;;;;;;;;27.09;37.67;95320.66;4905630;29;8739;-56
2023/02/16 10:02:13;;;;;;;;;;;;;;;27.08;37.53;95310.13;4891710;29;9128;-56
2023/02/16 10:05:05;;;;;;;;;;;;;;;27.07;37.36;95317.63;4890747;29;7256;-56
2023/02/16 10:07:55;;;;;;;;;;;;;;;27.09;36.72;95317.13;4919292;28;9138;-56
2023/02/16 10:10:30;;;;;;;;;;;;;;;27.06;36.92;95309.81;4953864;28;9455;-55
2023/02/16 10:13:06;;;;;;;;;;;;;;;27.06;37.78;95310.59;4950476;28;9071;-56
2023/02/16 10:15:49;;;;;;;;;;;;;;;27.06;37.20;95312.59;4963146;28;7290;-55
2023/02/16 10:18:29;;;;;;;;;;;;;;;27.08;37.38;95310.13;4959977;28;9473;-55
2023/02/16 10:21:02;;;;;;;;;;;;;;;27.07;37.94;95305.81;4956630;28;7094;-56
2023/02/16 10:24:05;;;;;;;;;;;;;;;27.11;37.91;95300.81;4953758;28;9111;-56
2023/02/16 10:26:38;;;;;;;;;;;;;;;27.10;37.48;95302.81;4915350;29;9015;-56
2023/02/16 10:29:15;;;;;;;;;;;;;;;27.10;37.35;95304.84;4898684;29;7103;-56
2023/02/16 10:31:58;;;;;;;;;;;;;;;27.07;37.40;95309.34;4916015;29;7061;-56
2023/02/16 10:35:01;;;;;;;;;;;;;;;27.09;37.42;95309.59;4896511;29;9343;-56
2023/02/16 10:38:04;;;;;;;;;;;;;;;27.12;37.51;95308.59;4892543;29;8703;-56
2023/02/16 10:40:56;;;;;;;;;;;;;;;27.11;36.97;95309.84;4903535;29;7205;-56
2023/02/16 10:43:31;;;;;;;;;;;;;;;27.11;37.19;95303.56;4907791;29;7188;-56
2023/02/16 10:45:59;;;;;;;;;;;;;;;27.11;37.03;95309.09;4899236;29;7127;-56
2023/02/16 10:48:26;;;;;;;;;;;;;;;27.12;36.96;95311.34;4907496;29;8989;-56
2023/02/16 10:51:16;;;;;;;;;;;;;;;27.11;37.61;95304.34;4911427;29;9165;-56
2023/02/16 10:53:49;;;;;;;;;;;;;;;27.12;37.02;95305.81;4894132;29;9035;-56
2023/02/16 10:56:45;;;;;;;;;;;;;;;27.16;36.91;95306.38;4916894;29;7124;-56
2023/02/16 10:59:40;;;;;;;;;;;;;;;27.16;37.02;95308.38;4895193;29;9366;-56
2023/02/16 11:02:25;;;;;;;;;;;;;;;27.15;37.10;95299.31;4843461;29;9228;-56
2023/02/16 11:04:56;;;;;;;;;;;;;;;27.14;36.89;95295.06;4894363;29;8781;-55
2023/02/16 11:07:32;;;;;;;;;;;;;;;27.17;36.92;95296.06;4891358;29;7243;-56
2023/02/16 11:10:36;;;;;;;;;;;;;;;27.17;36.75;95296.81;4893726;29;9776;-56
2023/02/16 11:13:18;;;;;;;;;;;;;;;27.18;37.16;95294.81;4842402;29;7211;-56
2023/02/16 11:15:53;;;;;;;;;;;;;;;27.17;36.36;95288.53;4872225;29;7512;-56
2023/02/16 11:18:49;;;;;;;;;;;;;;;27.21;36.54;95291.06;4858600;29;7117;-56
2023/02/16 11:21:16;;;;;;;;;;;;;;;27.20;36.27;95292.28;4798919;29;7002;-56
2023/02/16 11:23:58;;;;;;;;;;;;;;;27.20;36.45;95279.25;4799567;29;9138;-56
2023/02/16 11:26:25;;;;;;;;;;;;;;;27.16;36.71;95284.28;4782344;29;7158;-56
2023/02/16 11:28:52;;;;;;;;;;;;;;;27.15;36.70;95271.69;4797216;29;9085;-56
2023/02/16 11:31:26;;;;;;;;;;;;;;;27.16;36.18;95278.75;4802365;29;9406;-56
2023/02/16 11:34:07;;;;;;;;;;;;;;;27.19;36.12;95271.44;4787937;29;9304;-56
2023/02/16 11:36:46;;;;;;;;;;;;;;;27.18;36.54;95276.22;4801794;29;7223;-56
2023/02/16 11:39:50;;;;;;;;;;;;;;;27.20;36.23;95273.72;4838014;29;9150;-56
2023/02/16 11:42:43;;;;;;;;;;;;;;;27.19;36.18;95277.72;4875557;29;9662;-56
2023/02/16 11:45:37;;;;;;;;;;;;;;;27.22;36.34;95270.44;4852344;29;9514;-55
2023/02/16 11:48:13;;;;;;;;;;;;;;;27.23;36.57;95263.69;4871961;29;7201;-56
2023/02/16 11:50:56;;;;;;;;;;;;;;;27.23;36.22;95264.41;4890130;29;7242;-56
2023/02/16 11:53:27;;;;;;;;;;;;;;;27.22;36.23;95251.88;4895985;29;7208;-56
2023/02/16 11:56:28;;;;;;;;;;;;;;;27.26;36.30;95257.16;4894909;29;7203;-56
2023/02/16 11:59:18;;;;;;;;;;;;;;;27.28;36.01;95263.69;4890871;29;7275;-55
2023/02/16 12:01:58;;;;;;;;;;;;;;;27.27;35.67;95262.19;4901392;29;7044;-56
2023/02/16 12:04:51;;;;;;;;;;;;;;;27.26;35.59;95254.38;4888807;29;7520;-56
2023/02/16 12:08:16;;;;;;;;;;;;;;;27.27;35.80;95256.66;4889600;29;7280;-56
2023/02/16 12:11:10;;;;;;;;;;;;;;;27.26;35.40;95252.38;4886968;29;8999;-56
2023/02/16 12:14:23;;;;;;;;;;;;;;;27.29;35.14;95251.38;5046152;28;7240;-54
2023/02/16 12:17:10;;;;;;;;;;;;;;;27.27;35.35;95237.31;5029944;28;7053;-55
2023/02/16 12:19:53;;;;;;;;;;;;;;;27.31;35.00;95250.88;5027742;28;7211;-54
2023/02/16 12:26:37;;;;;;;;;;;;;;;27.28;34.71;95238.81;5022140;28;7020;-55
2023/02/16 12:29:22;;;;;;;;;;;;;;;27.28;34.62;95236.06;5037477;28;7023;-55
2023/02/16 12:32:14;;;;;;;;;;;;;;;27.30;34.79;95235.53;5033911;28;9587;-54
2023/02/16 12:38:29;;;;;;;;;;;;;;;27.33;34.79;95231.78;5020947;28;7237;-55
2023/02/16 12:40:55;;;;;;;;;;;;;;;27.34;34.40;95222.25;4954683;28;8958;-55
2023/02/16 12:43:37;;;;;;;;;;;;;;;27.37;34.58;95222.03;4948691;28;9339;-55
2023/02/16 12:46:40;;;;;;;;;;;;;;;27.38;34.50;95212.47;4962587;28;7206;-54
2023/02/16 12:49:50;;;;;;;;;;;;;;;27.40;34.16;95203.69;4963682;28;7508;-54
2023/02/16 12:53:09;;;;;;;;;;;;;;;27.43;34.51;95208.19;4921681;29;9013;-55
2023/02/16 12:56:06;;;;;;;;;;;;;;;27.45;34.49;95202.91;4890404;29;9105;-55
2023/02/16 12:58:45;;;;;;;;;;;;;;;27.47;34.51;95203.94;4877026;29;7225;-54
2023/02/16 13:01:17;;;;;;;;;;;;;;;27.45;34.55;95189.88;4883298;29;9023;-54
2023/02/16 13:04:05;;;;;;;;;;;;;;;27.51;34.25;95204.41;4887926;29;7458;-55
2023/02/16 13:07:05;;;;;;;;;;;;;;;27.53;33.83;95195.66;4871558;29;8702;-55
2023/02/16 13:10:15;;;;;;;;;;;;;;;27.53;33.74;95196.38;4873440;29;9436;-55
2023/02/16 13:13:10;;;;;;;;;;;;;;;27.57;33.89;95190.63;4869239;29;8843;-54
2023/02/16 13:15:42;;;;;;;;;;;;;;;27.58;33.78;95181.03;4893922;29;7280;-55
2023/02/16 13:18:33;;;;;;;;;;;;;;;27.60;33.93;95179.28;4910362;29;9021;-54
2023/02/16 13:21:24;;;;;;;;;;;;;;;27.61;33.84;95178.03;4928269;29;9071;-54
2023/02/16 13:24:44;;;;;;;;;;;;;;;27.64;33.69;95176.28;4922955;29;9064;-54
2023/02/16 13:28:07;;;;;;;;;;;;;;;27.67;34.04;95169.72;4932671;28;9079;-54
2023/02/16 13:31:28;;;;;;;;;;;;;;;27.68;33.57;95167.72;4883396;29;7110;-55
2023/02/16 13:34:21;;;;;;;;;;;;;;;27.70;33.85;95165.97;4934417;28;9059;-54
2023/02/16 13:44:25;;;;;;;;;;;;;;;27.80;33.81;95163.66;4857831;29;7308;-54
2023/02/16 13:47:31;;;;;;;;;;;;;;;27.78;33.78;95166.19;4854696;29;9209;-55
2023/02/16 13:50:23;;;;;;;;;;;;;;;27.78;33.75;95155.88;4803109;29;7271;-54
2023/02/16 13:53:15;;;;;;;;;;;;;;;27.83;33.92;95151.59;4803257;29;7099;-54
2023/02/16 13:55:43;;;;;;;;;;;;;;;27.86;33.78;95147.84;4803846;29;7118;-55
2023/02/16 13:58:15;;;;;;;;;;;;;;;27.89;33.58;95139.25;4803294;29;6913;-55
2023/02/16 14:00:41;;;;;;;;;;;;;;;27.92;34.21;95140.25;4801751;29;8809;-55
2023/02/16 14:03:19;;;;;;;;;;;;;;;27.95;33.64;95133.72;4801098;29;7074;-55
2023/02/16 14:06:33;;;;;;;;;;;;;;;27.98;34.01;95135.47;4768150;29;7210;-54
2023/02/16 14:09:37;;;;;;;;;;;;;;;28.04;33.96;95138.97;4783801;29;9002;-54
2023/02/16 14:12:10;;;;;;;;;;;;;;;28.04;34.26;95128.66;4779850;30;7117;-55
2023/02/16 14:14:41;;;;;;;;;;;;;;;28.09;34.04;95129.91;4786108;30;9103;-54
2023/02/16 14:17:15;;;;;;;;;;;;;;;28.10;33.76;95131.44;4800595;29;7270;-54
2023/02/16 14:19:59;;;;;;;;;;;;;;;28.09;34.15;95138.97;4892838;29;9391;-54
2023/02/16 14:22:25;;;;;;;;;;;;;;;28.08;33.85;95139.47;4873071;29;8974;-55
2023/02/16 14:24:58;;;;;;;;;;;;;;;28.08;34.13;95133.94;4893545;29;7317;-55
2023/02/16 14:27:57;;;;;;;;;;;;;;;28.07;34.24;95127.66;5000897;28;7633;-55
2023/02/16 14:31:02;;;;;;;;;;;;;;;28.10;34.22;95136.97;4994023;28;7470;-55
2023/02/16 14:34:12;;;;;;;;;;;;;;;28.08;34.37;95133.94;4993448;28;9025;-55
2023/02/16 14:40:15;;;;;;;;;;;;;;;28.06;34.25;95128.16;4989016;28;9098;-54
2023/02/16 14:43:05;;;;;;;;;;;;;;;28.02;34.72;95124.91;5006303;28;8790;-54
2023/02/16 14:45:37;;;;;;;;;;;;;;;28.01;34.82;95129.72;4991076;28;7256;-54
2023/02/16 14:48:47;;;;;;;;;;;;;;;28.02;34.67;95124.91;4989736;28;9493;-54
2023/02/16 14:51:59;;;;;;;;;;;;;;;28.05;34.30;95129.44;5007230;28;7060;-54
2023/02/16 14:54:48;;;;;;;;;;;;;;;28.07;34.29;95126.91;4914287;29;7564;-54
2023/02/16 14:57:30;;;;;;;;;;;;;;;28.09;34.30;95124.38;4931610;29;9427;-54
2023/02/16 15:00:28;;;;;;;;;;;;;;;28.12;34.09;95128.91;4915094;29;8980;-54
2023/02/16 15:03:14;;;;;;;;;;;;;;;28.09;34.58;95127.91;4910853;29;7094;-54
2023/02/16 15:06:03;;;;;;;;;;;;;;;28.09;34.37;95130.66;4931938;29;7130;-54
2023/02/16 15:09:05;;;;;;;;;;;;;;;28.11;34.35;95135.69;4913882;29;7101;-54
2023/02/16 15:15:45;;;;;;;;;;;;;;;28.15;34.40;95127.88;4929421;29;8999;-54
2023/02/16 15:18:24;;;;;;;;;;;;;;;28.10;34.04;95126.63;4912623;29;9552;-54
2023/02/16 15:21:29;;;;;;;;;;;;;;;28.10;34.46;95134.94;4914954;29;8728;-54
2023/02/16 15:23:59;;;;;;;;;;;;;;;28.11;34.34;95133.69;4919533;29;9522;-54
2023/02/16 15:26:34;;;;;;;;;;;;;;;28.09;34.55;95132.69;4926810;29;9130;-54
2023/02/16 15:29:58;;;;;;;;;;;;;;;28.10;34.47;95139.72;4911468;29;9055;-54